sensor_id;sensor_type;location;lat;lon;timestamp;P1;durP1;ratioP1;P2;durP2;ratioP2
61806;SDS011;47726;52.766;6.606;2022-10-16T00:01:15;8.15;;;2.75;;
61806;SDS011;47726;52.766;6.606;2022-10-16T00:03:42;7.68;;;3.03;;
61806;SDS011;47726;52.766;6.606;2022-10-16T00:06:09;5.93;;;2.55;;
61806;SDS011;47726;52.766;6.606;2022-10-16T00:08:36;8.48;;;2.80;;
61806;SDS011;47726;52.766;6.606;2022-10-16T00:11:03;6.32;;;2.67;;
61806;SDS011;47726;52.766;6.606;2022-10-16T00:13:33;6.23;;;2.50;;
61806;SDS011;47726;52.766;6.606;2022-10-16T00:16:00;4.97;;;2.58;;
61806;SDS011;47726;52.766;6.606;2022-10-16T00:18:26;7.03;;;2.60;;
61806;SDS011;47726;52.766;6.606;2022-10-16T00:20:52;4.43;;;2.50;;
61806;SDS011;47726;52.766;6.606;2022-10-16T00:23:19;6.20;;;2.80;;
61806;SDS011;47726;52.766;6.606;2022-10-16T00:25:45;7.13;;;2.80;;
61806;SDS011;47726;52.766;6.606;2022-10-16T00:28:19;5.63;;;2.50;;
61806;SDS011;47726;52.766;6.606;2022-10-16T00:30:44;6.55;;;2.33;;
61806;SDS011;47726;52.766;6.606;2022-10-16T00:33:10;6.80;;;2.55;;
61806;SDS011;47726;52.766;6.606;2022-10-16T00:35:35;5.88;;;2.47;;
61806;SDS011;47726;52.766;6.606;2022-10-16T00:38:01;5.70;;;2.40;;
61806;SDS011;47726;52.766;6.606;2022-10-16T00:40:26;9.32;;;2.50;;
61806;SDS011;47726;52.766;6.606;2022-10-16T00:42:53;10.15;;;2.83;;
61806;SDS011;47726;52.766;6.606;2022-10-16T00:45:18;6.50;;;2.40;;
61806;SDS011;47726;52.766;6.606;2022-10-16T00:47:44;5.13;;;2.30;;
61806;SDS011;47726;52.766;6.606;2022-10-16T00:52:53;5.97;;;2.72;;
61806;SDS011;47726;52.766;6.606;2022-10-16T00:55:20;7.05;;;2.55;;
61806;SDS011;47726;52.766;6.606;2022-10-16T00:57:46;6.57;;;2.67;;
61806;SDS011;47726;52.766;6.606;2022-10-16T01:00:14;6.50;;;2.53;;
61806;SDS011;47726;52.766;6.606;2022-10-16T01:02:44;6.35;;;2.58;;
61806;SDS011;47726;52.766;6.606;2022-10-16T01:05:16;7.03;;;2.50;;
61806;SDS011;47726;52.766;6.606;2022-10-16T01:10:27;5.10;;;2.42;;
61806;SDS011;47726;52.766;6.606;2022-10-16T01:15:34;5.57;;;2.83;;
61806;SDS011;47726;52.766;6.606;2022-10-16T01:18:30;7.18;;;2.60;;
61806;SDS011;47726;52.766;6.606;2022-10-16T01:21:03;6.47;;;3.00;;
61806;SDS011;47726;52.766;6.606;2022-10-16T01:27:04;4.38;;;2.70;;
61806;SDS011;47726;52.766;6.606;2022-10-16T01:29:46;7.25;;;2.70;;
61806;SDS011;47726;52.766;6.606;2022-10-16T01:32:33;7.47;;;3.03;;
61806;SDS011;47726;52.766;6.606;2022-10-16T01:35:07;4.68;;;2.85;;
61806;SDS011;47726;52.766;6.606;2022-10-16T01:37:58;3.88;;;2.88;;
61806;SDS011;47726;52.766;6.606;2022-10-16T01:40:32;4.65;;;2.97;;
61806;SDS011;47726;52.766;6.606;2022-10-16T01:43:03;5.13;;;2.70;;
61806;SDS011;47726;52.766;6.606;2022-10-16T01:45:49;5.70;;;3.08;;
61806;SDS011;47726;52.766;6.606;2022-10-16T01:48:18;5.63;;;3.00;;
61806;SDS011;47726;52.766;6.606;2022-10-16T01:50:49;5.93;;;3.00;;
61806;SDS011;47726;52.766;6.606;2022-10-16T01:53:24;7.20;;;3.10;;
61806;SDS011;47726;52.766;6.606;2022-10-16T01:55:50;8.10;;;3.10;;
61806;SDS011;47726;52.766;6.606;2022-10-16T01:58:19;7.28;;;3.08;;
61806;SDS011;47726;52.766;6.606;2022-10-16T02:00:46;5.45;;;3.03;;
61806;SDS011;47726;52.766;6.606;2022-10-16T02:03:13;7.28;;;3.38;;
61806;SDS011;47726;52.766;6.606;2022-10-16T02:05:45;5.57;;;3.13;;
61806;SDS011;47726;52.766;6.606;2022-10-16T02:08:13;7.78;;;3.47;;
61806;SDS011;47726;52.766;6.606;2022-10-16T02:10:39;6.80;;;3.00;;
61806;SDS011;47726;52.766;6.606;2022-10-16T02:15:36;7.23;;;3.37;;
61806;SDS011;47726;52.766;6.606;2022-10-16T02:18:02;6.38;;;3.00;;
61806;SDS011;47726;52.766;6.606;2022-10-16T02:20:34;6.53;;;3.20;;
61806;SDS011;47726;52.766;6.606;2022-10-16T02:23:17;5.22;;;3.08;;
61806;SDS011;47726;52.766;6.606;2022-10-16T02:25:49;7.32;;;3.38;;
61806;SDS011;47726;52.766;6.606;2022-10-16T02:28:19;6.40;;;3.15;;
61806;SDS011;47726;52.766;6.606;2022-10-16T02:30:50;6.93;;;3.20;;
61806;SDS011;47726;52.766;6.606;2022-10-16T02:33:27;6.47;;;3.03;;
61806;SDS011;47726;52.766;6.606;2022-10-16T02:35:54;6.70;;;3.05;;
61806;SDS011;47726;52.766;6.606;2022-10-16T02:38:21;5.95;;;3.17;;
61806;SDS011;47726;52.766;6.606;2022-10-16T02:40:48;6.22;;;3.10;;
61806;SDS011;47726;52.766;6.606;2022-10-16T02:43:14;5.63;;;3.00;;
61806;SDS011;47726;52.766;6.606;2022-10-16T02:45:40;6.80;;;2.88;;
61806;SDS011;47726;52.766;6.606;2022-10-16T02:48:05;5.07;;;2.75;;
61806;SDS011;47726;52.766;6.606;2022-10-16T02:50:31;6.15;;;2.80;;
61806;SDS011;47726;52.766;6.606;2022-10-16T02:52:57;4.70;;;2.90;;
61806;SDS011;47726;52.766;6.606;2022-10-16T02:55:22;5.70;;;3.13;;
61806;SDS011;47726;52.766;6.606;2022-10-16T02:57:48;4.60;;;2.85;;
61806;SDS011;47726;52.766;6.606;2022-10-16T03:00:15;4.90;;;2.83;;
61806;SDS011;47726;52.766;6.606;2022-10-16T03:02:41;3.95;;;2.60;;
61806;SDS011;47726;52.766;6.606;2022-10-16T03:05:07;6.10;;;2.88;;
61806;SDS011;47726;52.766;6.606;2022-10-16T03:07:34;5.22;;;2.97;;
61806;SDS011;47726;52.766;6.606;2022-10-16T03:09:59;6.22;;;2.90;;
61806;SDS011;47726;52.766;6.606;2022-10-16T03:12:25;6.00;;;2.97;;
61806;SDS011;47726;52.766;6.606;2022-10-16T03:14:52;6.70;;;3.00;;
61806;SDS011;47726;52.766;6.606;2022-10-16T03:17:18;4.57;;;2.95;;
61806;SDS011;47726;52.766;6.606;2022-10-16T03:19:43;5.45;;;3.05;;
61806;SDS011;47726;52.766;6.606;2022-10-16T03:22:09;8.00;;;3.22;;
61806;SDS011;47726;52.766;6.606;2022-10-16T03:24:34;6.85;;;3.08;;
61806;SDS011;47726;52.766;6.606;2022-10-16T03:27:00;6.55;;;2.90;;
61806;SDS011;47726;52.766;6.606;2022-10-16T03:29:26;4.35;;;2.88;;
61806;SDS011;47726;52.766;6.606;2022-10-16T03:31:52;7.45;;;3.00;;
61806;SDS011;47726;52.766;6.606;2022-10-16T03:34:18;7.65;;;3.33;;
61806;SDS011;47726;52.766;6.606;2022-10-16T03:36:43;5.90;;;3.38;;
61806;SDS011;47726;52.766;6.606;2022-10-16T03:39:09;6.40;;;3.45;;
61806;SDS011;47726;52.766;6.606;2022-10-16T03:41:34;8.10;;;3.05;;
61806;SDS011;47726;52.766;6.606;2022-10-16T03:44:00;5.72;;;3.20;;
61806;SDS011;47726;52.766;6.606;2022-10-16T03:46:25;7.53;;;3.38;;
61806;SDS011;47726;52.766;6.606;2022-10-16T03:48:51;5.50;;;3.17;;
61806;SDS011;47726;52.766;6.606;2022-10-16T03:51:16;5.93;;;3.00;;
61806;SDS011;47726;52.766;6.606;2022-10-16T03:53:42;5.75;;;3.20;;
61806;SDS011;47726;52.766;6.606;2022-10-16T03:56:08;6.25;;;3.05;;
61806;SDS011;47726;52.766;6.606;2022-10-16T03:58:33;4.60;;;3.17;;
61806;SDS011;47726;52.766;6.606;2022-10-16T04:00:59;6.50;;;3.35;;
61806;SDS011;47726;52.766;6.606;2022-10-16T04:03:24;5.18;;;3.30;;
61806;SDS011;47726;52.766;6.606;2022-10-16T04:05:50;6.07;;;3.35;;
61806;SDS011;47726;52.766;6.606;2022-10-16T04:08:16;4.18;;;3.00;;
61806;SDS011;47726;52.766;6.606;2022-10-16T04:10:44;5.35;;;3.13;;
61806;SDS011;47726;52.766;6.606;2022-10-16T04:13:10;7.90;;;3.85;;
61806;SDS011;47726;52.766;6.606;2022-10-16T04:15:36;5.93;;;3.40;;
61806;SDS011;47726;52.766;6.606;2022-10-16T04:18:02;6.28;;;3.38;;
61806;SDS011;47726;52.766;6.606;2022-10-16T04:20:28;6.72;;;3.22;;
61806;SDS011;47726;52.766;6.606;2022-10-16T04:22:55;5.45;;;3.45;;
61806;SDS011;47726;52.766;6.606;2022-10-16T04:25:20;6.38;;;3.63;;
61806;SDS011;47726;52.766;6.606;2022-10-16T04:27:46;5.60;;;3.53;;
61806;SDS011;47726;52.766;6.606;2022-10-16T04:30:12;4.35;;;3.20;;
61806;SDS011;47726;52.766;6.606;2022-10-16T04:32:37;5.03;;;3.42;;
61806;SDS011;47726;52.766;6.606;2022-10-16T04:35:03;6.53;;;3.78;;
61806;SDS011;47726;52.766;6.606;2022-10-16T04:37:29;7.43;;;3.60;;
61806;SDS011;47726;52.766;6.606;2022-10-16T04:39:54;5.78;;;3.65;;
61806;SDS011;47726;52.766;6.606;2022-10-16T04:42:20;7.18;;;3.70;;
61806;SDS011;47726;52.766;6.606;2022-10-16T04:44:46;6.15;;;3.35;;
61806;SDS011;47726;52.766;6.606;2022-10-16T04:47:12;5.70;;;3.40;;
61806;SDS011;47726;52.766;6.606;2022-10-16T04:49:38;9.00;;;3.80;;
61806;SDS011;47726;52.766;6.606;2022-10-16T04:52:04;6.68;;;3.67;;
61806;SDS011;47726;52.766;6.606;2022-10-16T04:54:29;5.15;;;3.60;;
61806;SDS011;47726;52.766;6.606;2022-10-16T04:56:55;6.78;;;3.70;;
61806;SDS011;47726;52.766;6.606;2022-10-16T04:59:21;5.25;;;3.58;;
61806;SDS011;47726;52.766;6.606;2022-10-16T05:01:48;6.43;;;3.75;;
61806;SDS011;47726;52.766;6.606;2022-10-16T05:04:14;6.43;;;3.83;;
61806;SDS011;47726;52.766;6.606;2022-10-16T05:06:40;7.53;;;3.80;;
61806;SDS011;47726;52.766;6.606;2022-10-16T05:09:07;5.20;;;3.60;;
61806;SDS011;47726;52.766;6.606;2022-10-16T05:11:33;6.07;;;3.83;;
61806;SDS011;47726;52.766;6.606;2022-10-16T05:13:59;6.28;;;3.55;;
61806;SDS011;47726;52.766;6.606;2022-10-16T05:16:25;7.28;;;3.53;;
61806;SDS011;47726;52.766;6.606;2022-10-16T05:18:51;8.40;;;3.65;;
61806;SDS011;47726;52.766;6.606;2022-10-16T05:21:16;4.93;;;3.70;;
61806;SDS011;47726;52.766;6.606;2022-10-16T05:23:42;6.40;;;3.60;;
61806;SDS011;47726;52.766;6.606;2022-10-16T05:26:08;4.90;;;3.50;;
61806;SDS011;47726;52.766;6.606;2022-10-16T05:28:33;6.25;;;3.65;;
61806;SDS011;47726;52.766;6.606;2022-10-16T05:30:59;7.15;;;3.72;;
61806;SDS011;47726;52.766;6.606;2022-10-16T05:33:28;6.60;;;3.80;;
61806;SDS011;47726;52.766;6.606;2022-10-16T05:35:54;5.65;;;3.45;;
61806;SDS011;47726;52.766;6.606;2022-10-16T05:38:19;6.72;;;3.40;;
61806;SDS011;47726;52.766;6.606;2022-10-16T05:40:50;6.18;;;3.90;;
61806;SDS011;47726;52.766;6.606;2022-10-16T05:43:17;7.35;;;3.65;;
61806;SDS011;47726;52.766;6.606;2022-10-16T05:45:42;7.57;;;3.60;;
61806;SDS011;47726;52.766;6.606;2022-10-16T05:48:08;4.22;;;3.40;;
61806;SDS011;47726;52.766;6.606;2022-10-16T05:50:33;5.63;;;3.30;;
61806;SDS011;47726;52.766;6.606;2022-10-16T05:52:59;4.82;;;3.38;;
61806;SDS011;47726;52.766;6.606;2022-10-16T05:55:24;6.50;;;3.45;;
61806;SDS011;47726;52.766;6.606;2022-10-16T05:57:50;6.75;;;3.60;;
61806;SDS011;47726;52.766;6.606;2022-10-16T06:00:18;6.47;;;2.97;;
61806;SDS011;47726;52.766;6.606;2022-10-16T06:02:44;5.85;;;3.47;;
61806;SDS011;47726;52.766;6.606;2022-10-16T06:05:09;6.63;;;3.28;;
61806;SDS011;47726;52.766;6.606;2022-10-16T06:07:35;4.85;;;3.53;;
61806;SDS011;47726;52.766;6.606;2022-10-16T06:10:01;5.30;;;3.22;;
61806;SDS011;47726;52.766;6.606;2022-10-16T06:12:28;6.45;;;3.63;;
61806;SDS011;47726;52.766;6.606;2022-10-16T06:14:53;4.00;;;2.80;;
61806;SDS011;47726;52.766;6.606;2022-10-16T06:17:19;5.95;;;3.08;;
61806;SDS011;47726;52.766;6.606;2022-10-16T06:19:44;5.65;;;2.95;;
61806;SDS011;47726;52.766;6.606;2022-10-16T06:22:10;5.40;;;3.13;;
61806;SDS011;47726;52.766;6.606;2022-10-16T06:24:35;3.38;;;2.70;;
61806;SDS011;47726;52.766;6.606;2022-10-16T06:27:02;4.65;;;3.40;;
61806;SDS011;47726;52.766;6.606;2022-10-16T06:29:29;7.03;;;3.30;;
61806;SDS011;47726;52.766;6.606;2022-10-16T06:31:54;5.82;;;3.30;;
61806;SDS011;47726;52.766;6.606;2022-10-16T06:34:20;6.10;;;3.50;;
61806;SDS011;47726;52.766;6.606;2022-10-16T06:36:45;4.60;;;3.00;;
61806;SDS011;47726;52.766;6.606;2022-10-16T06:39:11;4.82;;;3.15;;
61806;SDS011;47726;52.766;6.606;2022-10-16T06:41:36;5.38;;;3.28;;
61806;SDS011;47726;52.766;6.606;2022-10-16T06:44:06;6.13;;;3.15;;
61806;SDS011;47726;52.766;6.606;2022-10-16T06:46:32;6.60;;;3.13;;
61806;SDS011;47726;52.766;6.606;2022-10-16T06:48:58;8.35;;;3.03;;
61806;SDS011;47726;52.766;6.606;2022-10-16T06:51:24;4.28;;;2.60;;
61806;SDS011;47726;52.766;6.606;2022-10-16T06:53:53;5.72;;;3.00;;
61806;SDS011;47726;52.766;6.606;2022-10-16T06:56:23;4.63;;;2.67;;
61806;SDS011;47726;52.766;6.606;2022-10-16T06:58:50;4.55;;;2.80;;
61806;SDS011;47726;52.766;6.606;2022-10-16T07:01:18;6.32;;;2.90;;
61806;SDS011;47726;52.766;6.606;2022-10-16T07:03:46;6.88;;;2.85;;
61806;SDS011;47726;52.766;6.606;2022-10-16T07:06:13;6.93;;;2.70;;
61806;SDS011;47726;52.766;6.606;2022-10-16T07:08:42;4.82;;;2.83;;
61806;SDS011;47726;52.766;6.606;2022-10-16T07:11:10;4.50;;;2.70;;
61806;SDS011;47726;52.766;6.606;2022-10-16T07:13:38;3.65;;;2.53;;
61806;SDS011;47726;52.766;6.606;2022-10-16T07:16:05;6.63;;;2.70;;
61806;SDS011;47726;52.766;6.606;2022-10-16T07:18:32;5.32;;;2.78;;
61806;SDS011;47726;52.766;6.606;2022-10-16T07:21:08;6.13;;;2.75;;
61806;SDS011;47726;52.766;6.606;2022-10-16T07:23:36;3.00;;;2.70;;
61806;SDS011;47726;52.766;6.606;2022-10-16T07:26:02;6.20;;;2.80;;
61806;SDS011;47726;52.766;6.606;2022-10-16T07:28:28;5.57;;;3.00;;
61806;SDS011;47726;52.766;6.606;2022-10-16T07:30:54;4.22;;;2.60;;
61806;SDS011;47726;52.766;6.606;2022-10-16T07:33:20;4.75;;;2.45;;
61806;SDS011;47726;52.766;6.606;2022-10-16T07:35:53;5.93;;;2.70;;
61806;SDS011;47726;52.766;6.606;2022-10-16T07:38:19;5.15;;;2.90;;
61806;SDS011;47726;52.766;6.606;2022-10-16T07:40:45;4.63;;;2.75;;
61806;SDS011;47726;52.766;6.606;2022-10-16T07:43:11;5.43;;;2.90;;
61806;SDS011;47726;52.766;6.606;2022-10-16T07:45:38;6.15;;;3.10;;
61806;SDS011;47726;52.766;6.606;2022-10-16T07:48:15;6.38;;;2.90;;
61806;SDS011;47726;52.766;6.606;2022-10-16T07:50:42;5.43;;;2.70;;
61806;SDS011;47726;52.766;6.606;2022-10-16T07:53:07;5.43;;;2.83;;
61806;SDS011;47726;52.766;6.606;2022-10-16T07:55:33;6.97;;;2.88;;
61806;SDS011;47726;52.766;6.606;2022-10-16T07:57:59;6.03;;;2.50;;
61806;SDS011;47726;52.766;6.606;2022-10-16T08:00:24;8.35;;;2.72;;
61806;SDS011;47726;52.766;6.606;2022-10-16T08:02:50;5.65;;;2.50;;
61806;SDS011;47726;52.766;6.606;2022-10-16T08:05:15;4.97;;;2.50;;
61806;SDS011;47726;52.766;6.606;2022-10-16T08:07:41;4.53;;;2.40;;
61806;SDS011;47726;52.766;6.606;2022-10-16T08:10:09;6.40;;;2.38;;
61806;SDS011;47726;52.766;6.606;2022-10-16T08:12:41;5.97;;;2.30;;
61806;SDS011;47726;52.766;6.606;2022-10-16T08:15:07;6.80;;;2.13;;
61806;SDS011;47726;52.766;6.606;2022-10-16T08:17:33;4.43;;;2.10;;
61806;SDS011;47726;52.766;6.606;2022-10-16T08:19:59;3.83;;;2.00;;
61806;SDS011;47726;52.766;6.606;2022-10-16T08:22:24;5.13;;;2.20;;
61806;SDS011;47726;52.766;6.606;2022-10-16T08:24:50;5.35;;;2.20;;
61806;SDS011;47726;52.766;6.606;2022-10-16T08:27:15;5.00;;;2.20;;
61806;SDS011;47726;52.766;6.606;2022-10-16T08:29:41;6.90;;;2.35;;
61806;SDS011;47726;52.766;6.606;2022-10-16T08:32:07;4.75;;;2.35;;
61806;SDS011;47726;52.766;6.606;2022-10-16T08:34:32;6.78;;;2.60;;
61806;SDS011;47726;52.766;6.606;2022-10-16T08:36:58;6.35;;;2.30;;
61806;SDS011;47726;52.766;6.606;2022-10-16T08:39:23;5.28;;;2.33;;
61806;SDS011;47726;52.766;6.606;2022-10-16T08:50:31;6.53;;;2.70;;
61806;SDS011;47726;52.766;6.606;2022-10-16T08:53:01;5.32;;;2.70;;
61806;SDS011;47726;52.766;6.606;2022-10-16T08:55:31;4.90;;;2.50;;
61806;SDS011;47726;52.766;6.606;2022-10-16T08:58:13;3.72;;;2.38;;
61806;SDS011;47726;52.766;6.606;2022-10-16T09:00:41;4.97;;;2.42;;
61806;SDS011;47726;52.766;6.606;2022-10-16T09:05:57;7.35;;;2.40;;
61806;SDS011;47726;52.766;6.606;2022-10-16T09:14:17;5.03;;;2.42;;
61806;SDS011;47726;52.766;6.606;2022-10-16T09:16:33;6.00;;;2.45;;
61806;SDS011;47726;52.766;6.606;2022-10-16T09:19:13;5.35;;;2.17;;
61806;SDS011;47726;52.766;6.606;2022-10-16T09:21:49;5.40;;;2.22;;
61806;SDS011;47726;52.766;6.606;2022-10-16T09:24:19;8.73;;;2.10;;
61806;SDS011;47726;52.766;6.606;2022-10-16T09:26:48;7.00;;;2.38;;
61806;SDS011;47726;52.766;6.606;2022-10-16T09:29:15;6.15;;;2.20;;
61806;SDS011;47726;52.766;6.606;2022-10-16T09:31:44;6.18;;;2.10;;
61806;SDS011;47726;52.766;6.606;2022-10-16T09:36:57;5.97;;;2.08;;
61806;SDS011;47726;52.766;6.606;2022-10-16T09:39:25;8.15;;;2.28;;
61806;SDS011;47726;52.766;6.606;2022-10-16T09:41:51;6.63;;;2.15;;
61806;SDS011;47726;52.766;6.606;2022-10-16T09:44:19;8.13;;;2.10;;
61806;SDS011;47726;52.766;6.606;2022-10-16T09:46:46;7.53;;;2.05;;
61806;SDS011;47726;52.766;6.606;2022-10-16T09:49:22;7.68;;;2.20;;
61806;SDS011;47726;52.766;6.606;2022-10-16T09:51:50;7.80;;;2.22;;
61806;SDS011;47726;52.766;6.606;2022-10-16T09:54:17;6.25;;;2.10;;
61806;SDS011;47726;52.766;6.606;2022-10-16T09:56:45;9.98;;;2.30;;
61806;SDS011;47726;52.766;6.606;2022-10-16T09:59:15;9.80;;;2.50;;
61806;SDS011;47726;52.766;6.606;2022-10-16T10:04:17;8.13;;;2.13;;
61806;SDS011;47726;52.766;6.606;2022-10-16T10:06:45;12.98;;;2.53;;
61806;SDS011;47726;52.766;6.606;2022-10-16T10:09:15;7.00;;;2.05;;
61806;SDS011;47726;52.766;6.606;2022-10-16T10:14:24;9.85;;;2.17;;
61806;SDS011;47726;52.766;6.606;2022-10-16T10:16:51;7.40;;;2.25;;
61806;SDS011;47726;52.766;6.606;2022-10-16T10:19:26;8.85;;;2.20;;
61806;SDS011;47726;52.766;6.606;2022-10-16T10:21:52;11.40;;;2.70;;
61806;SDS011;47726;52.766;6.606;2022-10-16T10:24:18;11.35;;;2.65;;
61806;SDS011;47726;52.766;6.606;2022-10-16T10:26:48;11.05;;;2.60;;
61806;SDS011;47726;52.766;6.606;2022-10-16T10:30:13;9.65;;;2.58;;
61806;SDS011;47726;52.766;6.606;2022-10-16T10:35:22;10.43;;;2.22;;
61806;SDS011;47726;52.766;6.606;2022-10-16T10:40:39;8.65;;;2.20;;
61806;SDS011;47726;52.766;6.606;2022-10-16T10:43:15;9.25;;;2.42;;
61806;SDS011;47726;52.766;6.606;2022-10-16T10:45:51;10.20;;;2.50;;
61806;SDS011;47726;52.766;6.606;2022-10-16T10:48:34;11.23;;;2.75;;
61806;SDS011;47726;52.766;6.606;2022-10-16T10:51:14;8.88;;;2.25;;
61806;SDS011;47726;52.766;6.606;2022-10-16T10:54:12;10.75;;;2.40;;
61806;SDS011;47726;52.766;6.606;2022-10-16T10:56:48;9.02;;;2.28;;
61806;SDS011;47726;52.766;6.606;2022-10-16T11:07:42;12.70;;;2.33;;
61806;SDS011;47726;52.766;6.606;2022-10-16T11:10:38;10.82;;;2.65;;
61806;SDS011;47726;52.766;6.606;2022-10-16T11:15:59;8.95;;;1.98;;
61806;SDS011;47726;52.766;6.606;2022-10-16T11:18:40;10.82;;;2.42;;
61806;SDS011;47726;52.766;6.606;2022-10-16T11:21:12;9.30;;;2.20;;
61806;SDS011;47726;52.766;6.606;2022-10-16T11:23:43;11.70;;;2.25;;
61806;SDS011;47726;52.766;6.606;2022-10-16T11:26:18;10.45;;;2.30;;
61806;SDS011;47726;52.766;6.606;2022-10-16T11:28:49;10.27;;;2.20;;
61806;SDS011;47726;52.766;6.606;2022-10-16T11:31:31;9.55;;;2.35;;
61806;SDS011;47726;52.766;6.606;2022-10-16T11:39:30;9.25;;;2.28;;
61806;SDS011;47726;52.766;6.606;2022-10-16T11:55:59;10.13;;;2.45;;
61806;SDS011;47726;52.766;6.606;2022-10-16T11:58:26;9.55;;;2.20;;
61806;SDS011;47726;52.766;6.606;2022-10-16T12:09:21;9.60;;;2.20;;
61806;SDS011;47726;52.766;6.606;2022-10-16T12:11:55;8.85;;;2.63;;
61806;SDS011;47726;52.766;6.606;2022-10-16T12:14:22;7.53;;;2.25;;
61806;SDS011;47726;52.766;6.606;2022-10-16T12:16:59;9.25;;;1.95;;
61806;SDS011;47726;52.766;6.606;2022-10-16T12:19:27;8.75;;;2.30;;
61806;SDS011;47726;52.766;6.606;2022-10-16T12:21:58;11.10;;;2.13;;
61806;SDS011;47726;52.766;6.606;2022-10-16T12:24:39;9.55;;;2.30;;
61806;SDS011;47726;52.766;6.606;2022-10-16T12:27:28;10.68;;;2.63;;
61806;SDS011;47726;52.766;6.606;2022-10-16T12:29:59;9.75;;;2.30;;
61806;SDS011;47726;52.766;6.606;2022-10-16T12:32:36;11.85;;;2.38;;
61806;SDS011;47726;52.766;6.606;2022-10-16T12:35:17;9.48;;;2.35;;
61806;SDS011;47726;52.766;6.606;2022-10-16T12:37:47;7.65;;;1.90;;
61806;SDS011;47726;52.766;6.606;2022-10-16T12:40:27;11.48;;;2.30;;
61806;SDS011;47726;52.766;6.606;2022-10-16T12:42:56;8.27;;;2.30;;
61806;SDS011;47726;52.766;6.606;2022-10-16T12:45:32;8.60;;;2.08;;
61806;SDS011;47726;52.766;6.606;2022-10-16T12:47:59;9.18;;;2.13;;
61806;SDS011;47726;52.766;6.606;2022-10-16T12:53:01;10.45;;;2.63;;
61806;SDS011;47726;52.766;6.606;2022-10-16T12:55:32;10.13;;;2.10;;
61806;SDS011;47726;52.766;6.606;2022-10-16T13:05:54;10.88;;;2.40;;
61806;SDS011;47726;52.766;6.606;2022-10-16T13:08:32;10.50;;;2.17;;
61806;SDS011;47726;52.766;6.606;2022-10-16T13:17:01;10.07;;;2.20;;
61806;SDS011;47726;52.766;6.606;2022-10-16T13:19:37;7.05;;;1.92;;
61806;SDS011;47726;52.766;6.606;2022-10-16T13:22:23;11.32;;;2.58;;
61806;SDS011;47726;52.766;6.606;2022-10-16T13:28:04;11.32;;;2.17;;
61806;SDS011;47726;52.766;6.606;2022-10-16T13:30:38;14.40;;;2.80;;
61806;SDS011;47726;52.766;6.606;2022-10-16T13:35:35;11.73;;;2.33;;
61806;SDS011;47726;52.766;6.606;2022-10-16T13:38:14;8.38;;;2.10;;
61806;SDS011;47726;52.766;6.606;2022-10-16T13:43:18;9.10;;;2.05;;
61806;SDS011;47726;52.766;6.606;2022-10-16T13:45:57;11.13;;;2.40;;
61806;SDS011;47726;52.766;6.606;2022-10-16T13:48:24;7.70;;;2.08;;
61806;SDS011;47726;52.766;6.606;2022-10-16T13:51:00;9.38;;;2.10;;
61806;SDS011;47726;52.766;6.606;2022-10-16T13:53:35;7.28;;;2.10;;
61806;SDS011;47726;52.766;6.606;2022-10-16T13:56:02;6.32;;;2.03;;
61806;SDS011;47726;52.766;6.606;2022-10-16T13:58:30;7.05;;;2.03;;
61806;SDS011;47726;52.766;6.606;2022-10-16T14:00:57;8.30;;;2.13;;
61806;SDS011;47726;52.766;6.606;2022-10-16T14:03:27;9.60;;;2.28;;
61806;SDS011;47726;52.766;6.606;2022-10-16T14:05:58;7.53;;;2.05;;
61806;SDS011;47726;52.766;6.606;2022-10-16T14:08:26;9.15;;;2.50;;
61806;SDS011;47726;52.766;6.606;2022-10-16T14:10:55;7.85;;;2.22;;
61806;SDS011;47726;52.766;6.606;2022-10-16T14:13:26;8.15;;;2.50;;
61806;SDS011;47726;52.766;6.606;2022-10-16T14:16:07;9.98;;;2.53;;
61806;SDS011;47726;52.766;6.606;2022-10-16T14:18:41;8.48;;;2.30;;
61806;SDS011;47726;52.766;6.606;2022-10-16T14:21:27;8.00;;;2.28;;
61806;SDS011;47726;52.766;6.606;2022-10-16T14:23:53;7.53;;;2.30;;
61806;SDS011;47726;52.766;6.606;2022-10-16T14:26:21;9.98;;;2.25;;
61806;SDS011;47726;52.766;6.606;2022-10-16T14:28:51;9.43;;;2.38;;
61806;SDS011;47726;52.766;6.606;2022-10-16T14:31:35;7.43;;;1.88;;
61806;SDS011;47726;52.766;6.606;2022-10-16T14:34:02;8.15;;;2.20;;
61806;SDS011;47726;52.766;6.606;2022-10-16T14:36:29;8.65;;;1.80;;
61806;SDS011;47726;52.766;6.606;2022-10-16T14:39:02;7.28;;;2.00;;
61806;SDS011;47726;52.766;6.606;2022-10-16T14:41:32;10.77;;;2.22;;
61806;SDS011;47726;52.766;6.606;2022-10-16T14:44:05;9.60;;;2.20;;
61806;SDS011;47726;52.766;6.606;2022-10-16T14:46:33;6.78;;;2.08;;
61806;SDS011;47726;52.766;6.606;2022-10-16T14:51:39;9.05;;;2.22;;
61806;SDS011;47726;52.766;6.606;2022-10-16T14:54:11;8.45;;;1.95;;
61806;SDS011;47726;52.766;6.606;2022-10-16T14:56:50;7.25;;;2.22;;
61806;SDS011;47726;52.766;6.606;2022-10-16T14:59:28;7.68;;;2.10;;
61806;SDS011;47726;52.766;6.606;2022-10-16T15:02:14;5.10;;;1.80;;
61806;SDS011;47726;52.766;6.606;2022-10-16T15:04:48;7.47;;;2.20;;
61806;SDS011;47726;52.766;6.606;2022-10-16T15:07:14;8.02;;;2.10;;
61806;SDS011;47726;52.766;6.606;2022-10-16T15:09:39;11.15;;;2.20;;
61806;SDS011;47726;52.766;6.606;2022-10-16T15:12:05;8.20;;;2.30;;
61806;SDS011;47726;52.766;6.606;2022-10-16T15:14:31;9.15;;;2.50;;
61806;SDS011;47726;52.766;6.606;2022-10-16T15:16:56;9.18;;;2.33;;
61806;SDS011;47726;52.766;6.606;2022-10-16T15:19:22;9.75;;;2.45;;
61806;SDS011;47726;52.766;6.606;2022-10-16T15:21:48;8.38;;;2.10;;
61806;SDS011;47726;52.766;6.606;2022-10-16T15:24:14;6.28;;;2.05;;
61806;SDS011;47726;52.766;6.606;2022-10-16T15:26:39;7.70;;;2.38;;
61806;SDS011;47726;52.766;6.606;2022-10-16T15:29:06;10.10;;;2.00;;
61806;SDS011;47726;52.766;6.606;2022-10-16T15:31:31;9.63;;;2.35;;
61806;SDS011;47726;52.766;6.606;2022-10-16T15:33:57;8.52;;;2.47;;
61806;SDS011;47726;52.766;6.606;2022-10-16T15:36:28;7.28;;;2.30;;
61806;SDS011;47726;52.766;6.606;2022-10-16T15:39:12;7.95;;;2.17;;
61806;SDS011;47726;52.766;6.606;2022-10-16T15:41:40;9.93;;;2.72;;
61806;SDS011;47726;52.766;6.606;2022-10-16T15:44:06;8.40;;;2.50;;
61806;SDS011;47726;52.766;6.606;2022-10-16T15:46:32;10.85;;;2.60;;
61806;SDS011;47726;52.766;6.606;2022-10-16T15:48:59;7.97;;;2.55;;
61806;SDS011;47726;52.766;6.606;2022-10-16T15:51:26;9.38;;;2.60;;
61806;SDS011;47726;52.766;6.606;2022-10-16T15:56:23;10.80;;;2.92;;
61806;SDS011;47726;52.766;6.606;2022-10-16T15:58:50;9.60;;;2.67;;
61806;SDS011;47726;52.766;6.606;2022-10-16T16:01:17;6.95;;;3.00;;
61806;SDS011;47726;52.766;6.606;2022-10-16T16:03:42;8.20;;;3.28;;
61806;SDS011;47726;52.766;6.606;2022-10-16T16:06:10;9.73;;;3.30;;
61806;SDS011;47726;52.766;6.606;2022-10-16T16:08:38;11.60;;;3.70;;
61806;SDS011;47726;52.766;6.606;2022-10-16T16:11:05;10.68;;;3.90;;
61806;SDS011;47726;52.766;6.606;2022-10-16T16:13:35;12.15;;;4.93;;
61806;SDS011;47726;52.766;6.606;2022-10-16T16:16:08;11.25;;;4.82;;
61806;SDS011;47726;52.766;6.606;2022-10-16T16:18:36;10.88;;;5.57;;
61806;SDS011;47726;52.766;6.606;2022-10-16T16:21:02;14.23;;;7.82;;
61806;SDS011;47726;52.766;6.606;2022-10-16T16:23:28;14.73;;;7.93;;
61806;SDS011;47726;52.766;6.606;2022-10-16T16:28:40;17.05;;;8.20;;
61806;SDS011;47726;52.766;6.606;2022-10-16T16:31:07;17.05;;;7.38;;
61806;SDS011;47726;52.766;6.606;2022-10-16T16:33:33;11.45;;;5.72;;
61806;SDS011;47726;52.766;6.606;2022-10-16T16:35:59;13.10;;;5.47;;
61806;SDS011;47726;52.766;6.606;2022-10-16T16:38:27;12.25;;;5.28;;
61806;SDS011;47726;52.766;6.606;2022-10-16T16:40:53;13.45;;;5.88;;
61806;SDS011;47726;52.766;6.606;2022-10-16T16:43:22;13.48;;;6.32;;
61806;SDS011;47726;52.766;6.606;2022-10-16T16:45:49;11.55;;;5.32;;
61806;SDS011;47726;52.766;6.606;2022-10-16T16:48:15;13.93;;;6.20;;
61806;SDS011;47726;52.766;6.606;2022-10-16T16:50:40;13.80;;;6.78;;
61806;SDS011;47726;52.766;6.606;2022-10-16T16:53:06;18.17;;;6.35;;